createdAt,value
2018-11-12T00:00:39.683Z,95.10
2018-11-12T00:03:11.571Z,95.10
2018-11-12T00:05:42.653Z,95.20
2018-11-12T00:08:13.961Z,95.20
2018-11-12T00:10:45.443Z,95.10
2018-11-12T00:13:17.118Z,95.50
2018-11-12T00:15:48.432Z,95.30
2018-11-12T00:18:19.688Z,95.20
2018-11-12T00:20:50.901Z,95.30
2018-11-12T00:23:22.442Z,95.30
2018-11-12T00:25:53.867Z,95.20
2018-11-12T00:28:25.471Z,95.40
2018-11-12T00:30:56.686Z,95.50
2018-11-12T00:33:28.276Z,95.50
2018-11-12T00:35:59.612Z,95.60
2018-11-12T00:38:30.980Z,95.50
2018-11-12T00:41:02.488Z,95.50
2018-11-12T00:43:33.838Z,95.70
2018-11-12T00:46:05.301Z,95.60
2018-11-12T00:48:36.588Z,95.70
2018-11-12T00:51:07.908Z,95.60
2018-11-12T00:53:39.352Z,95.50
2018-11-12T00:56:10.895Z,95.30
2018-11-12T00:58:42.293Z,95.90
2018-11-12T01:01:13.670Z,95.70
2018-11-12T01:03:45.100Z,95.60
2018-11-12T01:06:16.111Z,95.80
2018-11-12T01:08:47.456Z,95.60
2018-11-12T01:11:18.684Z,95.40
2018-11-12T01:13:50.060Z,95.30
2018-11-12T01:16:21.315Z,95.30
2018-11-12T01:18:52.448Z,95.30
2018-11-12T01:21:23.888Z,95.30
2018-11-12T01:23:55.139Z,95.30
2018-11-12T01:26:26.749Z,95.20
2018-11-12T01:28:58.230Z,95.10
2018-11-12T01:31:29.310Z,95.20
2018-11-12T01:34:00.772Z,95.20
2018-11-12T01:36:32.153Z,95.30
2018-11-12T01:39:05.020Z,95.70
2018-11-12T01:41:36.416Z,95.40
2018-11-12T01:44:07.577Z,95.30
2018-11-12T01:46:39.161Z,95.40
2018-11-12T01:49:10.668Z,95.50
2018-11-12T01:51:41.944Z,95.50
2018-11-12T01:54:12.877Z,95.50
2018-11-12T01:56:44.287Z,95.60
2018-11-12T01:59:15.640Z,95.70
2018-11-12T02:01:47.110Z,95.70
2018-11-12T02:04:18.400Z,95.60
2018-11-12T02:06:49.589Z,95.80
2018-11-12T02:09:21.285Z,95.50
2018-11-12T02:11:52.675Z,95.60
2018-11-12T02:14:23.847Z,95.70
2018-11-12T02:16:55.052Z,95.70
2018-11-12T02:19:26.392Z,95.70
2018-11-12T02:21:57.558Z,95.90
2018-11-12T02:24:29.347Z,95.90
2018-11-12T02:27:00.645Z,95.80
2018-11-12T02:29:31.943Z,95.90
2018-11-12T02:32:03.093Z,95.80
2018-11-12T02:34:34.521Z,95.80
2018-11-12T02:37:06.060Z,95.90
2018-11-12T02:39:37.527Z,95.80
2018-11-12T02:42:08.757Z,95.80
2018-11-12T02:44:40.041Z,96.30
2018-11-12T02:47:11.198Z,95.90
2018-11-12T02:49:42.642Z,95.90
2018-11-12T02:52:13.812Z,95.90
2018-11-12T02:54:44.968Z,95.80
2018-11-12T02:57:16.267Z,95.90
2018-11-12T02:59:47.669Z,96.00
2018-11-12T03:02:18.900Z,96.30
2018-11-12T03:04:49.988Z,96.00
2018-11-12T03:07:21.531Z,96.10
2018-11-12T03:09:52.692Z,96.20
2018-11-12T03:12:24.233Z,96.10
2018-11-12T03:14:55.584Z,96.10
2018-11-12T03:17:27.020Z,96.20
2018-11-12T03:19:58.277Z,96.30
2018-11-12T03:22:29.467Z,96.40
2018-11-12T03:25:00.828Z,96.50
2018-11-12T03:27:32.295Z,96.40
2018-11-12T03:30:03.703Z,96.40
2018-11-12T03:32:34.849Z,96.30
2018-11-12T03:35:06.786Z,96.40
2018-11-12T03:37:38.075Z,96.40
2018-11-12T03:40:13.745Z,96.50
2018-11-12T03:42:45.466Z,96.50
2018-11-12T03:45:20.738Z,96.50
2018-11-12T03:47:51.885Z,96.40
2018-11-12T03:50:24.777Z,96.40
2018-11-12T03:52:56.132Z,96.40
2018-11-12T03:55:27.432Z,96.40
2018-11-12T03:57:58.396Z,96.50
2018-11-12T04:00:31.602Z,96.50
2018-11-12T04:03:02.789Z,96.60
2018-11-12T04:05:34.076Z,96.60
2018-11-12T04:08:05.196Z,96.60
2018-11-12T04:10:36.617Z,96.40
2018-11-12T04:13:07.951Z,96.50
2018-11-12T04:15:39.575Z,96.70
2018-11-12T04:18:11.029Z,97.30
2018-11-12T04:20:42.500Z,96.90
2018-11-12T04:23:13.736Z,96.80
2018-11-12T04:25:45.022Z,96.80
2018-11-12T04:28:16.335Z,96.70
2018-11-12T04:30:47.865Z,96.60
2018-11-12T04:33:18.936Z,96.70
2018-11-12T04:35:50.200Z,96.60
2018-11-12T04:38:21.725Z,96.50
2018-11-12T04:40:52.873Z,96.50
2018-11-12T04:43:24.069Z,96.50
2018-11-12T04:45:55.247Z,96.40
2018-11-12T04:48:26.688Z,96.30
2018-11-12T04:50:58.248Z,96.40
2018-11-12T04:53:29.707Z,96.50
2018-11-12T04:56:00.944Z,96.50
2018-11-12T04:58:32.104Z,96.40
2018-11-12T05:01:03.729Z,96.30
2018-11-12T05:03:35.183Z,96.40
2018-11-12T05:06:06.600Z,96.50
2018-11-12T05:08:37.993Z,96.60
2018-11-12T05:11:09.202Z,96.40
2018-11-12T05:13:40.630Z,96.30
2018-11-12T05:16:12.080Z,96.40
2018-11-12T05:18:43.475Z,96.50
2018-11-12T05:21:14.612Z,96.40
2018-11-12T05:23:45.917Z,96.50
2018-11-12T05:26:17.143Z,96.40
2018-11-12T05:28:48.472Z,96.50
2018-11-12T05:31:20.360Z,96.40
2018-11-12T05:33:51.723Z,96.60
2018-11-12T05:36:22.770Z,96.50
2018-11-12T05:38:54.293Z,96.50
2018-11-12T05:41:25.605Z,96.50
2018-11-12T05:43:57.176Z,96.60
2018-11-12T05:46:28.567Z,96.70
2018-11-12T05:48:59.896Z,96.80
2018-11-12T05:51:31.432Z,96.70
2018-11-12T05:54:03.047Z,96.70
2018-11-12T05:56:34.501Z,96.80
2018-11-12T05:59:05.966Z,96.60
2018-11-12T06:01:37.486Z,96.60
2018-11-12T06:04:08.787Z,96.60
2018-11-12T06:06:40.271Z,96.50
2018-11-12T06:09:12.477Z,96.50
2018-11-12T06:11:44.088Z,96.90
2018-11-12T06:14:15.423Z,96.90
2018-11-12T06:16:46.888Z,96.90
2018-11-12T06:19:18.220Z,97.00
2018-11-12T06:21:49.536Z,96.90
2018-11-12T06:24:21.152Z,96.90
2018-11-12T06:26:52.461Z,96.80
2018-11-12T06:29:23.997Z,97.00
2018-11-12T06:31:55.300Z,96.70
2018-11-12T06:34:26.900Z,96.80
2018-11-12T06:36:58.490Z,96.90
2018-11-12T06:39:29.617Z,97.10
2018-11-12T06:42:01.178Z,97.00
2018-11-12T06:44:32.344Z,97.10
2018-11-12T06:47:03.568Z,97.20
2018-11-12T06:49:34.732Z,97.20
2018-11-12T06:52:06.275Z,97.20
2018-11-12T06:54:37.765Z,97.40
2018-11-12T06:57:09.171Z,97.20
2018-11-12T06:59:40.530Z,97.30
2018-11-12T07:02:11.761Z,97.30
2018-11-12T07:04:43.281Z,97.30
2018-11-12T07:07:14.565Z,97.30
2018-11-12T07:09:46.105Z,97.30
2018-11-12T07:12:17.195Z,97.40
2018-11-12T07:14:48.513Z,97.50
2018-11-12T07:17:19.949Z,97.40
2018-11-12T07:19:51.690Z,97.50
2018-11-12T07:22:23.595Z,97.50
2018-11-12T07:24:55.291Z,97.50
2018-11-12T07:27:26.859Z,98.30
2018-11-12T07:29:58.544Z,97.60
2018-11-12T07:32:30.260Z,97.50
2018-11-12T07:35:01.643Z,97.20
2018-11-12T07:37:33.195Z,97.20
2018-11-12T07:40:04.572Z,97.40
2018-11-12T07:42:36.129Z,97.20
2018-11-12T07:45:09.609Z,97.20
2018-11-12T07:47:41.915Z,97.30
2018-11-12T07:50:15.120Z,97.30
2018-11-12T07:52:46.691Z,97.30
2018-11-12T07:55:20.894Z,97.30
2018-11-12T07:57:53.432Z,97.30
2018-11-12T08:00:28.086Z,97.40
2018-11-12T08:03:09.546Z,97.30
2018-11-12T08:05:41.645Z,97.30
2018-11-12T08:08:13.109Z,97.40
2018-11-12T08:10:44.649Z,97.40
2018-11-12T08:13:15.854Z,97.30
2018-11-12T08:15:47.215Z,97.30
2018-11-12T08:18:18.656Z,97.20
2018-11-12T08:20:49.757Z,97.20
2018-11-12T08:23:21.212Z,97.30
2018-11-12T08:25:52.594Z,97.20
2018-11-12T08:28:23.815Z,97.30
2018-11-12T08:30:55.042Z,97.30
2018-11-12T08:33:26.304Z,97.20
2018-11-12T08:35:57.952Z,97.20
2018-11-12T08:38:29.513Z,97.10
2018-11-12T08:41:00.737Z,97.30
2018-11-12T08:43:32.108Z,97.30
2018-11-12T08:46:03.199Z,97.20
2018-11-12T08:48:34.397Z,96.90
2018-11-12T08:51:05.860Z,97.00
2018-11-12T08:53:37.065Z,97.20
2018-11-12T08:56:08.323Z,96.50
2018-11-12T08:58:39.752Z,96.40
2018-11-12T09:01:11.219Z,96.30
2018-11-12T09:03:42.832Z,96.10
2018-11-12T09:06:13.937Z,95.90
2018-11-12T09:08:45.202Z,95.30
2018-11-12T09:11:16.392Z,95.20
2018-11-12T09:13:47.893Z,93.50
2018-11-12T09:16:20.397Z,92.80
2018-11-12T09:18:51.736Z,91.40
2018-11-12T09:21:23.036Z,91.90
2018-11-12T09:23:54.451Z,91.40
2018-11-12T09:26:25.921Z,90.80
2018-11-12T09:28:57.499Z,90.60
2018-11-12T09:31:29.183Z,90.40
2018-11-12T09:34:00.237Z,90.10
2018-11-12T09:36:31.730Z,89.40
2018-11-12T09:39:03.243Z,89.50
2018-11-12T09:41:34.366Z,87.50
2018-11-12T09:44:05.786Z,86.60
2018-11-12T09:46:37.416Z,87.50
2018-11-12T09:49:09.138Z,85.10
2018-11-12T09:51:40.673Z,86.00
2018-11-12T09:54:12.218Z,85.10
2018-11-12T09:56:43.740Z,86.10
2018-11-12T09:59:15.047Z,86.60
2018-11-12T10:01:46.935Z,88.90
2018-11-12T10:04:18.578Z,89.60
2018-11-12T10:06:50.927Z,90.80
2018-11-12T10:09:22.306Z,91.30
2018-11-12T10:11:53.775Z,91.30
2018-11-12T10:14:26.384Z,92.20
2018-11-12T10:16:57.925Z,92.00
2018-11-12T10:19:26.646Z,92.50
2018-11-12T10:21:58.078Z,92.90
2018-11-12T10:24:29.337Z,93.70
2018-11-12T10:27:00.953Z,93.10
2018-11-12T10:29:32.427Z,93.30
2018-11-12T10:32:03.775Z,93.20
2018-11-12T10:34:35.052Z,93.30
2018-11-12T10:37:06.390Z,93.70
2018-11-12T10:39:37.528Z,93.60
2018-11-12T10:42:09.139Z,93.80
2018-11-12T10:44:40.537Z,93.80
2018-11-12T10:47:11.867Z,93.90
2018-11-12T10:49:43.120Z,93.90
2018-11-12T10:52:14.361Z,93.70
2018-11-12T10:54:45.842Z,93.40
2018-11-12T10:57:17.073Z,93.40
2018-11-12T10:59:48.324Z,93.20
2018-11-12T11:02:24.550Z,93.30
2018-11-12T11:04:56.104Z,93.30
2018-11-12T11:07:27.368Z,93.10
2018-11-12T11:09:58.854Z,92.90
2018-11-12T11:12:30.234Z,92.90
2018-11-12T11:15:01.422Z,93.10
2018-11-12T11:17:32.719Z,92.90
2018-11-12T11:20:04.580Z,93.00
2018-11-12T11:22:35.966Z,92.80
2018-11-12T11:25:07.725Z,92.70
2018-11-12T11:27:39.269Z,93.10
2018-11-12T11:30:14.023Z,92.50
2018-11-12T11:32:45.495Z,92.70
2018-11-12T11:35:17.779Z,92.50
2018-11-12T11:37:49.246Z,92.50
2018-11-12T11:40:21.674Z,92.60
2018-11-12T11:42:53.112Z,92.70
2018-11-12T11:45:24.341Z,92.40
2018-11-12T11:47:55.977Z,92.10
2018-11-12T11:50:27.990Z,92.10
2018-11-12T11:52:59.499Z,91.70
2018-11-12T11:55:31.089Z,91.80
2018-11-12T11:58:02.408Z,91.80
2018-11-12T12:00:33.774Z,91.40
2018-11-12T12:03:05.547Z,91.40
2018-11-12T12:05:36.724Z,91.40
2018-11-12T12:08:08.172Z,91.40
2018-11-12T12:10:39.683Z,91.40
2018-11-12T12:13:11.021Z,91.30
2018-11-12T12:15:42.234Z,91.50
2018-11-12T12:18:13.749Z,91.60
2018-11-12T12:20:45.131Z,91.40
2018-11-12T12:23:16.600Z,91.30
2018-11-12T12:25:48.058Z,91.20
2018-11-12T12:28:19.704Z,91.00
2018-11-12T12:30:50.988Z,91.10
2018-11-12T12:33:23.332Z,91.00
2018-11-12T12:35:54.771Z,91.20
2018-11-12T12:38:26.095Z,91.10
2018-11-12T12:40:57.484Z,91.60
2018-11-12T12:43:28.820Z,91.30
2018-11-12T12:46:00.450Z,91.40
2018-11-12T12:48:31.655Z,91.30
2018-11-12T12:51:02.885Z,91.30
2018-11-12T12:53:34.427Z,91.30
2018-11-12T12:56:06.017Z,91.40
2018-11-12T12:58:37.547Z,91.30
2018-11-12T13:01:09.169Z,91.30
2018-11-12T13:03:40.648Z,91.30
2018-11-12T13:06:12.132Z,91.10
2018-11-12T13:08:43.517Z,91.10
2018-11-12T13:11:14.836Z,91.00
2018-11-12T13:13:46.402Z,91.00
2018-11-12T13:16:17.632Z,90.70
2018-11-12T13:18:48.988Z,90.40
2018-11-12T13:21:20.311Z,90.30
2018-11-12T13:23:51.816Z,90.20
2018-11-12T13:26:23.109Z,90.00
2018-11-12T13:28:54.569Z,90.20
2018-11-12T13:31:26.003Z,89.90
2018-11-12T13:33:57.345Z,90.00
2018-11-12T13:36:28.855Z,90.20
2018-11-12T13:39:00.081Z,90.00
2018-11-12T13:41:31.506Z,89.90
2018-11-12T13:44:02.904Z,90.00
2018-11-12T13:46:39.346Z,90.10
2018-11-12T13:49:10.789Z,90.00
2018-11-12T13:51:42.430Z,90.10
2018-11-12T13:54:13.799Z,90.00
2018-11-12T13:56:45.315Z,89.50
2018-11-12T13:59:16.698Z,89.10
2018-11-12T14:01:48.256Z,88.70
2018-11-12T14:04:19.866Z,88.30
2018-11-12T14:06:51.249Z,87.90
2018-11-12T14:09:22.655Z,88.00
2018-11-12T14:11:53.935Z,87.90
2018-11-12T14:14:25.041Z,88.00
2018-11-12T14:16:56.804Z,87.30
2018-11-12T14:19:35.014Z,87.10
2018-11-12T14:22:06.242Z,87.00
2018-11-12T14:25:43.233Z,87.00
2018-11-12T14:28:14.075Z,87.70
2018-11-12T14:30:44.920Z,88.20
2018-11-12T14:33:15.790Z,88.30
2018-11-12T14:35:46.672Z,88.40
2018-11-12T14:38:17.562Z,88.60
2018-11-12T14:46:56.925Z,88.50
2018-11-12T14:49:53.032Z,88.80
2018-11-12T15:05:29.699Z,88.50
2018-11-12T15:08:01.094Z,89.00
2018-11-12T15:10:32.005Z,89.00
2018-11-12T15:13:02.833Z,89.10
2018-11-12T15:15:33.727Z,89.30
2018-11-12T15:18:04.523Z,89.30
2018-11-12T15:20:35.373Z,89.40
2018-11-12T15:23:06.203Z,89.60
2018-11-12T15:25:37.031Z,90.00
2018-11-12T15:28:07.958Z,90.10
2018-11-12T15:30:38.744Z,90.10
2018-11-12T15:33:09.531Z,90.20
2018-11-12T15:35:40.353Z,90.30
2018-11-12T15:38:11.116Z,90.40
2018-11-12T15:40:41.939Z,90.50
2018-11-12T15:43:12.848Z,90.80
2018-11-12T15:45:43.808Z,90.70
2018-11-12T15:48:14.621Z,90.80
2018-11-12T15:50:45.478Z,91.00
2018-11-12T15:53:16.279Z,91.10
2018-11-12T15:55:47.522Z,91.10
2018-11-12T15:58:18.926Z,91.30
2018-11-12T16:00:50.164Z,91.30
2018-11-12T16:03:21.849Z,91.50
2018-11-12T16:05:53.351Z,91.80
2018-11-12T16:08:24.497Z,91.80
2018-11-12T16:10:55.655Z,91.80
2018-11-12T16:13:26.907Z,91.90
2018-11-12T16:15:58.255Z,92.00
2018-11-12T16:18:30.485Z,92.00
2018-11-12T16:21:01.575Z,92.20
2018-11-12T16:23:33.362Z,92.10
2018-11-12T16:26:05.479Z,92.20
2018-11-12T16:28:39.677Z,92.20
2018-11-12T16:31:15.946Z,92.30
2018-11-12T16:33:48.689Z,92.30
2018-11-12T16:36:21.400Z,92.20
2018-11-12T16:38:53.856Z,92.20
2018-11-12T16:41:27.047Z,92.30
2018-11-12T16:44:00.947Z,92.40
2018-11-12T16:53:46.330Z,92.60
2018-11-12T16:56:25.175Z,92.90
2018-11-12T16:58:56.541Z,92.70
2018-11-12T17:01:28.778Z,92.70
2018-11-12T17:09:33.854Z,92.70
2018-11-12T17:13:23.849Z,92.80
2018-11-12T17:15:57.385Z,93.10
2018-11-12T17:18:37.112Z,93.10
2018-11-12T17:23:55.960Z,92.80
2018-11-12T17:29:44.823Z,92.70
2018-11-12T17:33:43.805Z,92.70
2018-11-12T18:01:11.560Z,92.60
2018-11-12T18:03:55.270Z,92.30
2018-11-12T18:10:49.526Z,92.40
2018-11-12T18:13:38.584Z,92.30
2018-11-12T18:19:28.012Z,92.60
2018-11-12T18:25:49.998Z,92.30
2018-11-12T18:32:19.315Z,95.10
2018-11-12T18:48:49.498Z,94.10
2018-11-12T18:51:30.158Z,93.10
2018-11-12T18:54:15.044Z,93.20
2018-11-12T19:01:38.236Z,92.70
2018-11-12T19:04:30.643Z,92.80
2018-11-12T19:14:33.862Z,93.20
2018-11-12T19:17:22.645Z,92.90
2018-11-12T19:20:07.563Z,93.40
2018-11-12T19:32:30.366Z,92.60
2018-11-12T19:35:01.980Z,92.70
2018-11-12T19:37:33.400Z,92.80
2018-11-12T19:40:05.340Z,92.80
2018-11-12T19:42:36.595Z,92.70
2018-11-12T19:45:10.933Z,92.80
2018-11-12T19:47:42.578Z,92.80
2018-11-12T19:50:16.596Z,93.20
2018-11-12T19:52:49.697Z,92.90
2018-11-12T19:55:21.331Z,93.10
2018-11-12T19:57:52.818Z,93.40
2018-11-12T20:00:26.255Z,92.90
2018-11-12T20:02:58.871Z,92.60
2018-11-12T20:05:30.161Z,92.30
2018-11-12T20:08:01.267Z,92.30
2018-11-12T20:10:32.210Z,92.50
2018-11-12T20:13:03.270Z,92.60
2018-11-12T20:15:34.401Z,92.60
2018-11-12T20:18:05.398Z,92.60
2018-11-12T20:20:37.108Z,92.50
2018-11-12T20:23:10.055Z,92.50
2018-11-12T20:25:42.416Z,92.60
2018-11-12T20:28:14.686Z,92.70
2018-11-12T20:30:46.522Z,92.70
2018-11-12T20:33:18.193Z,92.70
2018-11-12T20:35:49.812Z,92.80
2018-11-12T20:38:21.203Z,92.90
2018-11-12T20:40:53.088Z,92.80
2018-11-12T20:43:25.102Z,93.00
2018-11-12T20:45:57.063Z,93.00
2018-11-12T20:48:29.070Z,93.00
2018-11-12T20:51:00.805Z,93.00
2018-11-12T20:53:31.974Z,93.00
2018-11-12T20:56:03.276Z,92.90
2018-11-12T20:58:34.546Z,93.10
2018-11-12T21:01:05.906Z,93.10
2018-11-12T21:03:37.426Z,93.10
2018-11-12T21:06:09.407Z,93.00
2018-11-12T21:08:42.839Z,92.90
2018-11-12T21:11:15.832Z,92.90
2018-11-12T21:13:48.508Z,92.90
2018-11-12T21:16:20.317Z,92.90
2018-11-12T21:18:51.868Z,92.80
2018-11-12T21:21:22.985Z,92.90
2018-11-12T21:23:55.359Z,92.80
2018-11-12T21:26:26.823Z,92.80
2018-11-12T21:28:58.445Z,93.00
2018-11-12T21:31:29.633Z,93.00
2018-11-12T21:34:01.578Z,93.00
2018-11-12T21:36:33.125Z,93.00
2018-11-12T21:39:05.620Z,93.00
2018-11-12T21:41:36.843Z,93.20
2018-11-12T21:44:08.751Z,93.20
2018-11-12T21:46:39.809Z,93.10
2018-11-12T21:49:11.183Z,93.10
2018-11-12T21:51:42.329Z,93.20
2018-11-12T21:54:13.569Z,93.20
2018-11-12T21:56:44.755Z,93.30
2018-11-12T21:59:16.382Z,93.20
2018-11-12T22:01:47.772Z,93.20
2018-11-12T22:04:19.825Z,93.20
2018-11-12T22:06:52.034Z,93.40
2018-11-12T22:09:23.625Z,93.50
2018-11-12T22:11:54.941Z,93.60
2018-11-12T22:14:26.035Z,93.40
2018-11-12T22:16:57.003Z,93.40
2018-11-12T22:19:28.051Z,93.30
2018-11-12T22:21:58.992Z,93.50
2018-11-12T22:24:29.916Z,93.50
2018-11-12T22:27:00.945Z,93.50
2018-11-12T22:29:32.370Z,93.50
2018-11-12T22:32:03.432Z,93.50
2018-11-12T22:34:34.345Z,93.40
2018-11-12T22:37:05.328Z,93.40
2018-11-12T22:39:36.695Z,93.70
2018-11-12T22:42:08.162Z,93.70
2018-11-12T22:44:39.277Z,93.80
2018-11-12T22:47:10.397Z,93.80
2018-11-12T22:49:41.756Z,93.70
2018-11-12T22:52:12.781Z,93.60
2018-11-12T22:54:43.768Z,93.70
2018-11-12T22:57:14.813Z,93.70
2018-11-12T22:59:45.958Z,93.80
2018-11-12T23:02:17.408Z,93.80
2018-11-12T23:04:48.385Z,93.90
2018-11-12T23:07:19.460Z,94.00
2018-11-12T23:09:50.609Z,93.90
2018-11-12T23:12:21.812Z,94.00
2018-11-12T23:14:52.922Z,94.00
2018-11-12T23:17:24.346Z,94.00
2018-11-12T23:19:55.291Z,94.00
2018-11-12T23:22:26.265Z,94.00
2018-11-12T23:24:57.204Z,94.10
2018-11-12T23:27:28.311Z,94.10
2018-11-12T23:29:59.573Z,94.10
2018-11-12T23:32:30.646Z,94.10
2018-11-12T23:35:01.482Z,94.10
2018-11-12T23:37:32.390Z,94.20
2018-11-12T23:40:03.763Z,94.10
2018-11-12T23:42:34.605Z,94.00
2018-11-12T23:45:06.022Z,94.10
2018-11-12T23:47:37.432Z,93.90
2018-11-12T23:50:13.228Z,94.10
2018-11-12T23:52:44.821Z,93.90
2018-11-12T23:55:15.901Z,93.90
2018-11-12T23:57:47.447Z,94.00
